sensor_id;sensor_type;location;lat;lon;timestamp;P1;durP1;ratioP1;P2;durP2;ratioP2
18623;SDS011;9441;51.420;7.036;2023-03-01T00:00:42;38.70;;;12.90;;
18623;SDS011;9441;51.420;7.036;2023-03-01T00:01:46;34.47;;;12.87;;
18623;SDS011;9441;51.420;7.036;2023-03-01T00:02:48;37.17;;;13.03;;
18623;SDS011;9441;51.420;7.036;2023-03-01T00:03:50;36.80;;;14.27;;
18623;SDS011;9441;51.420;7.036;2023-03-01T00:04:52;40.80;;;14.00;;
18623;SDS011;9441;51.420;7.036;2023-03-01T00:05:54;39.17;;;14.23;;
18623;SDS011;9441;51.420;7.036;2023-03-01T00:06:55;38.27;;;13.97;;
18623;SDS011;9441;51.420;7.036;2023-03-01T00:07:58;40.93;;;14.33;;
18623;SDS011;9441;51.420;7.036;2023-03-01T00:08:59;43.43;;;14.87;;
18623;SDS011;9441;51.420;7.036;2023-03-01T00:10:01;37.03;;;13.80;;
18623;SDS011;9441;51.420;7.036;2023-03-01T00:11:03;44.73;;;13.97;;
18623;SDS011;9441;51.420;7.036;2023-03-01T00:12:07;37.83;;;13.60;;
18623;SDS011;9441;51.420;7.036;2023-03-01T00:13:09;35.97;;;13.43;;
18623;SDS011;9441;51.420;7.036;2023-03-01T00:14:12;37.80;;;13.77;;
18623;SDS011;9441;51.420;7.036;2023-03-01T00:15:14;37.43;;;13.40;;
18623;SDS011;9441;51.420;7.036;2023-03-01T00:16:17;40.07;;;14.20;;
18623;SDS011;9441;51.420;7.036;2023-03-01T00:17:18;39.00;;;13.50;;
18623;SDS011;9441;51.420;7.036;2023-03-01T00:18:21;39.33;;;14.27;;
18623;SDS011;9441;51.420;7.036;2023-03-01T00:19:22;37.40;;;13.03;;
18623;SDS011;9441;51.420;7.036;2023-03-01T00:20:25;38.67;;;13.97;;
18623;SDS011;9441;51.420;7.036;2023-03-01T00:21:26;39.43;;;13.37;;
18623;SDS011;9441;51.420;7.036;2023-03-01T00:22:29;38.53;;;13.53;;
18623;SDS011;9441;51.420;7.036;2023-03-01T00:23:30;36.00;;;13.27;;
18623;SDS011;9441;51.420;7.036;2023-03-01T00:24:33;30.13;;;12.77;;
18623;SDS011;9441;51.420;7.036;2023-03-01T00:25:40;41.23;;;14.27;;
18623;SDS011;9441;51.420;7.036;2023-03-01T00:26:42;32.70;;;12.47;;
18623;SDS011;9441;51.420;7.036;2023-03-01T00:27:45;30.20;;;12.53;;
18623;SDS011;9441;51.420;7.036;2023-03-01T00:28:50;30.07;;;12.90;;
18623;SDS011;9441;51.420;7.036;2023-03-01T00:29:53;32.33;;;12.90;;
18623;SDS011;9441;51.420;7.036;2023-03-01T00:30:54;36.80;;;12.90;;
18623;SDS011;9441;51.420;7.036;2023-03-01T00:31:56;33.93;;;13.23;;
18623;SDS011;9441;51.420;7.036;2023-03-01T00:32:58;32.50;;;13.43;;
18623;SDS011;9441;51.420;7.036;2023-03-01T00:34:01;31.53;;;13.70;;
18623;SDS011;9441;51.420;7.036;2023-03-01T00:35:03;33.00;;;12.57;;
18623;SDS011;9441;51.420;7.036;2023-03-01T00:36:06;26.83;;;12.82;;
18623;SDS011;9441;51.420;7.036;2023-03-01T00:37:07;26.27;;;12.37;;
18623;SDS011;9441;51.420;7.036;2023-03-01T00:38:10;27.20;;;12.80;;
18623;SDS011;9441;51.420;7.036;2023-03-01T00:39:12;25.97;;;11.90;;
18623;SDS011;9441;51.420;7.036;2023-03-01T00:40:15;35.87;;;12.73;;
18623;SDS011;9441;51.420;7.036;2023-03-01T00:41:17;40.57;;;13.50;;
18623;SDS011;9441;51.420;7.036;2023-03-01T00:42:19;39.40;;;13.60;;
18623;SDS011;9441;51.420;7.036;2023-03-01T00:43:23;39.57;;;13.07;;
18623;SDS011;9441;51.420;7.036;2023-03-01T00:44:26;42.87;;;13.87;;
18623;SDS011;9441;51.420;7.036;2023-03-01T00:45:28;44.97;;;13.75;;
18623;SDS011;9441;51.420;7.036;2023-03-01T00:46:31;39.67;;;12.97;;
18623;SDS011;9441;51.420;7.036;2023-03-01T00:47:34;41.35;;;13.80;;
18623;SDS011;9441;51.420;7.036;2023-03-01T00:48:35;40.93;;;13.70;;
18623;SDS011;9441;51.420;7.036;2023-03-01T00:49:38;38.38;;;13.50;;
18623;SDS011;9441;51.420;7.036;2023-03-01T00:50:40;42.37;;;13.57;;
18623;SDS011;9441;51.420;7.036;2023-03-01T00:51:42;38.60;;;13.20;;
18623;SDS011;9441;51.420;7.036;2023-03-01T00:52:44;35.17;;;13.07;;
18623;SDS011;9441;51.420;7.036;2023-03-01T00:53:46;37.00;;;13.33;;
18623;SDS011;9441;51.420;7.036;2023-03-01T00:54:48;32.13;;;13.40;;
18623;SDS011;9441;51.420;7.036;2023-03-01T00:55:53;40.95;;;13.25;;
18623;SDS011;9441;51.420;7.036;2023-03-01T00:56:55;31.67;;;13.27;;
18623;SDS011;9441;51.420;7.036;2023-03-01T00:57:57;33.88;;;13.40;;
18623;SDS011;9441;51.420;7.036;2023-03-01T00:59:00;33.30;;;12.50;;
18623;SDS011;9441;51.420;7.036;2023-03-01T01:00:02;30.08;;;12.57;;
18623;SDS011;9441;51.420;7.036;2023-03-01T01:01:08;29.63;;;12.68;;
18623;SDS011;9441;51.420;7.036;2023-03-01T01:02:17;36.90;;;13.38;;
18623;SDS011;9441;51.420;7.036;2023-03-01T01:03:19;44.17;;;13.98;;
18623;SDS011;9441;51.420;7.036;2023-03-01T01:04:21;45.97;;;14.60;;
18623;SDS011;9441;51.420;7.036;2023-03-01T01:05:23;53.08;;;15.55;;
18623;SDS011;9441;51.420;7.036;2023-03-01T01:06:26;82.30;;;16.83;;
18623;SDS011;9441;51.420;7.036;2023-03-01T01:07:28;64.20;;;16.97;;
18623;SDS011;9441;51.420;7.036;2023-03-01T01:08:30;80.13;;;17.58;;
18623;SDS011;9441;51.420;7.036;2023-03-01T01:09:32;70.68;;;16.70;;
18623;SDS011;9441;51.420;7.036;2023-03-01T01:10:33;61.97;;;16.88;;
18623;SDS011;9441;51.420;7.036;2023-03-01T01:11:36;61.28;;;16.23;;
18623;SDS011;9441;51.420;7.036;2023-03-01T01:12:37;67.20;;;16.73;;
18623;SDS011;9441;51.420;7.036;2023-03-01T01:13:39;74.93;;;17.73;;
18623;SDS011;9441;51.420;7.036;2023-03-01T01:14:42;55.15;;;16.25;;
18623;SDS011;9441;51.420;7.036;2023-03-01T01:15:45;54.85;;;16.40;;
18623;SDS011;9441;51.420;7.036;2023-03-01T01:16:46;46.95;;;15.35;;
18623;SDS011;9441;51.420;7.036;2023-03-01T01:17:49;51.13;;;15.32;;
18623;SDS011;9441;51.420;7.036;2023-03-01T01:18:50;42.65;;;14.80;;
18623;SDS011;9441;51.420;7.036;2023-03-01T01:19:53;42.80;;;15.13;;
18623;SDS011;9441;51.420;7.036;2023-03-01T01:20:54;54.80;;;15.10;;
18623;SDS011;9441;51.420;7.036;2023-03-01T01:21:56;61.38;;;16.55;;
18623;SDS011;9441;51.420;7.036;2023-03-01T01:22:58;62.10;;;16.15;;
18623;SDS011;9441;51.420;7.036;2023-03-01T01:24:00;59.30;;;15.68;;
18623;SDS011;9441;51.420;7.036;2023-03-01T01:25:03;51.35;;;15.95;;
18623;SDS011;9441;51.420;7.036;2023-03-01T01:26:06;48.35;;;14.70;;
18623;SDS011;9441;51.420;7.036;2023-03-01T01:27:08;50.33;;;15.27;;
18623;SDS011;9441;51.420;7.036;2023-03-01T01:28:10;49.05;;;15.63;;
18623;SDS011;9441;51.420;7.036;2023-03-01T01:29:12;44.42;;;15.02;;
18623;SDS011;9441;51.420;7.036;2023-03-01T01:30:16;49.50;;;15.02;;
18623;SDS011;9441;51.420;7.036;2023-03-01T01:31:18;43.00;;;14.25;;
18623;SDS011;9441;51.420;7.036;2023-03-01T01:32:20;34.15;;;14.07;;
18623;SDS011;9441;51.420;7.036;2023-03-01T01:33:22;34.47;;;14.63;;
18623;SDS011;9441;51.420;7.036;2023-03-01T01:34:24;41.28;;;14.45;;
18623;SDS011;9441;51.420;7.036;2023-03-01T01:35:27;41.10;;;15.05;;
18623;SDS011;9441;51.420;7.036;2023-03-01T01:36:29;33.42;;;13.20;;
18623;SDS011;9441;51.420;7.036;2023-03-01T01:37:31;36.08;;;12.90;;
18623;SDS011;9441;51.420;7.036;2023-03-01T01:38:32;33.15;;;13.52;;
18623;SDS011;9441;51.420;7.036;2023-03-01T01:39:35;34.28;;;13.35;;
18623;SDS011;9441;51.420;7.036;2023-03-01T01:40:42;31.80;;;12.98;;
18623;SDS011;9441;51.420;7.036;2023-03-01T01:41:44;29.33;;;13.32;;
18623;SDS011;9441;51.420;7.036;2023-03-01T01:42:45;29.58;;;12.52;;
18623;SDS011;9441;51.420;7.036;2023-03-01T01:43:49;29.92;;;13.25;;
18623;SDS011;9441;51.420;7.036;2023-03-01T01:45:27;32.17;;;12.90;;
18623;SDS011;9441;51.420;7.036;2023-03-01T01:46:30;34.83;;;13.15;;
18623;SDS011;9441;51.420;7.036;2023-03-01T01:47:32;33.40;;;13.20;;
18623;SDS011;9441;51.420;7.036;2023-03-01T01:48:37;34.50;;;13.15;;
18623;SDS011;9441;51.420;7.036;2023-03-01T01:49:41;33.45;;;12.88;;
18623;SDS011;9441;51.420;7.036;2023-03-01T01:50:44;28.30;;;12.07;;
18623;SDS011;9441;51.420;7.036;2023-03-01T01:51:48;28.13;;;12.98;;
18623;SDS011;9441;51.420;7.036;2023-03-01T01:52:50;29.65;;;12.98;;
18623;SDS011;9441;51.420;7.036;2023-03-01T01:53:55;31.90;;;12.52;;
18623;SDS011;9441;51.420;7.036;2023-03-01T01:54:57;30.40;;;13.15;;
18623;SDS011;9441;51.420;7.036;2023-03-01T01:56:02;32.28;;;13.52;;
18623;SDS011;9441;51.420;7.036;2023-03-01T01:57:06;31.60;;;12.45;;
18623;SDS011;9441;51.420;7.036;2023-03-01T01:58:09;30.65;;;13.02;;
18623;SDS011;9441;51.420;7.036;2023-03-01T01:59:12;28.70;;;12.98;;
18623;SDS011;9441;51.420;7.036;2023-03-01T02:00:16;26.25;;;12.35;;
18623;SDS011;9441;51.420;7.036;2023-03-01T02:01:19;26.08;;;12.40;;
18623;SDS011;9441;51.420;7.036;2023-03-01T02:02:22;27.05;;;12.82;;
18623;SDS011;9441;51.420;7.036;2023-03-01T02:03:25;31.70;;;13.15;;
18623;SDS011;9441;51.420;7.036;2023-03-01T02:04:29;27.97;;;12.27;;
18623;SDS011;9441;51.420;7.036;2023-03-01T02:05:33;30.00;;;13.30;;
18623;SDS011;9441;51.420;7.036;2023-03-01T02:06:38;30.38;;;12.48;;
18623;SDS011;9441;51.420;7.036;2023-03-01T02:07:40;30.88;;;11.80;;
18623;SDS011;9441;51.420;7.036;2023-03-01T02:08:43;30.67;;;12.20;;
18623;SDS011;9441;51.420;7.036;2023-03-01T02:09:46;29.85;;;13.40;;
18623;SDS011;9441;51.420;7.036;2023-03-01T02:10:49;29.27;;;13.63;;
18623;SDS011;9441;51.420;7.036;2023-03-01T02:11:51;29.15;;;13.50;;
18623;SDS011;9441;51.420;7.036;2023-03-01T02:12:54;24.60;;;13.02;;
18623;SDS011;9441;51.420;7.036;2023-03-01T02:13:56;26.85;;;12.43;;
18623;SDS011;9441;51.420;7.036;2023-03-01T02:14:58;30.10;;;13.30;;
18623;SDS011;9441;51.420;7.036;2023-03-01T02:16:02;32.03;;;13.32;;
18623;SDS011;9441;51.420;7.036;2023-03-01T02:17:05;29.45;;;13.10;;
18623;SDS011;9441;51.420;7.036;2023-03-01T02:18:07;29.00;;;13.48;;
18623;SDS011;9441;51.420;7.036;2023-03-01T02:19:12;28.33;;;13.25;;
18623;SDS011;9441;51.420;7.036;2023-03-01T02:20:19;24.33;;;12.40;;
18623;SDS011;9441;51.420;7.036;2023-03-01T02:21:27;32.38;;;13.77;;
18623;SDS011;9441;51.420;7.036;2023-03-01T02:22:31;27.35;;;13.10;;
18623;SDS011;9441;51.420;7.036;2023-03-01T02:23:33;30.35;;;12.40;;
18623;SDS011;9441;51.420;7.036;2023-03-01T02:24:38;26.23;;;13.10;;
18623;SDS011;9441;51.420;7.036;2023-03-01T02:25:44;24.45;;;12.60;;
18623;SDS011;9441;51.420;7.036;2023-03-01T02:26:48;24.40;;;12.40;;
18623;SDS011;9441;51.420;7.036;2023-03-01T02:27:54;25.83;;;13.05;;
18623;SDS011;9441;51.420;7.036;2023-03-01T02:28:59;24.35;;;12.85;;
18623;SDS011;9441;51.420;7.036;2023-03-01T02:30:02;26.95;;;13.38;;
18623;SDS011;9441;51.420;7.036;2023-03-01T02:31:04;25.35;;;13.40;;
18623;SDS011;9441;51.420;7.036;2023-03-01T02:32:25;27.75;;;13.45;;
18623;SDS011;9441;51.420;7.036;2023-03-01T02:33:28;30.10;;;13.38;;
18623;SDS011;9441;51.420;7.036;2023-03-01T02:34:33;28.08;;;12.80;;
18623;SDS011;9441;51.420;7.036;2023-03-01T02:35:36;30.98;;;13.48;;
18623;SDS011;9441;51.420;7.036;2023-03-01T02:36:39;24.73;;;12.73;;
18623;SDS011;9441;51.420;7.036;2023-03-01T02:37:43;27.30;;;13.93;;
18623;SDS011;9441;51.420;7.036;2023-03-01T02:38:45;23.13;;;12.52;;
18623;SDS011;9441;51.420;7.036;2023-03-01T02:39:48;26.90;;;13.40;;
18623;SDS011;9441;51.420;7.036;2023-03-01T02:40:51;28.30;;;12.77;;
18623;SDS011;9441;51.420;7.036;2023-03-01T02:41:54;26.85;;;13.80;;
18623;SDS011;9441;51.420;7.036;2023-03-01T02:42:57;25.73;;;13.02;;
18623;SDS011;9441;51.420;7.036;2023-03-01T02:44:01;25.63;;;13.68;;
18623;SDS011;9441;51.420;7.036;2023-03-01T02:45:03;24.92;;;13.52;;
18623;SDS011;9441;51.420;7.036;2023-03-01T02:46:06;26.40;;;12.65;;
18623;SDS011;9441;51.420;7.036;2023-03-01T02:47:08;23.33;;;13.27;;
18623;SDS011;9441;51.420;7.036;2023-03-01T02:48:10;25.63;;;13.02;;
18623;SDS011;9441;51.420;7.036;2023-03-01T02:49:22;23.35;;;12.70;;
18623;SDS011;9441;51.420;7.036;2023-03-01T02:50:34;26.30;;;12.85;;
18623;SDS011;9441;51.420;7.036;2023-03-01T02:51:45;27.20;;;12.93;;
18623;SDS011;9441;51.420;7.036;2023-03-01T02:52:52;26.45;;;13.25;;
18623;SDS011;9441;51.420;7.036;2023-03-01T02:54:01;24.40;;;13.80;;
18623;SDS011;9441;51.420;7.036;2023-03-01T02:55:07;25.27;;;12.70;;
18623;SDS011;9441;51.420;7.036;2023-03-01T02:56:10;24.38;;;13.13;;
18623;SDS011;9441;51.420;7.036;2023-03-01T02:57:14;26.45;;;12.85;;
18623;SDS011;9441;51.420;7.036;2023-03-01T02:58:17;22.30;;;12.73;;
18623;SDS011;9441;51.420;7.036;2023-03-01T02:59:20;22.52;;;12.55;;
18623;SDS011;9441;51.420;7.036;2023-03-01T03:00:24;26.77;;;13.63;;
18623;SDS011;9441;51.420;7.036;2023-03-01T03:01:27;24.05;;;13.43;;
18623;SDS011;9441;51.420;7.036;2023-03-01T03:02:37;24.33;;;12.65;;
18623;SDS011;9441;51.420;7.036;2023-03-01T03:03:59;21.67;;;12.30;;
18623;SDS011;9441;51.420;7.036;2023-03-01T03:05:06;27.63;;;12.93;;
18623;SDS011;9441;51.420;7.036;2023-03-01T03:06:09;23.90;;;12.98;;
18623;SDS011;9441;51.420;7.036;2023-03-01T03:07:11;25.70;;;12.48;;
18623;SDS011;9441;51.420;7.036;2023-03-01T03:08:13;24.75;;;13.27;;
18623;SDS011;9441;51.420;7.036;2023-03-01T03:09:24;24.25;;;12.77;;
18623;SDS011;9441;51.420;7.036;2023-03-01T03:10:27;23.90;;;12.52;;
18623;SDS011;9441;51.420;7.036;2023-03-01T03:11:30;26.13;;;12.52;;
18623;SDS011;9441;51.420;7.036;2023-03-01T03:12:32;24.20;;;12.93;;
18623;SDS011;9441;51.420;7.036;2023-03-01T03:13:35;29.23;;;13.52;;
18623;SDS011;9441;51.420;7.036;2023-03-01T03:14:37;21.25;;;12.13;;
18623;SDS011;9441;51.420;7.036;2023-03-01T03:15:41;25.55;;;12.88;;
18623;SDS011;9441;51.420;7.036;2023-03-01T03:16:43;24.40;;;12.55;;
18623;SDS011;9441;51.420;7.036;2023-03-01T03:17:46;23.17;;;12.63;;
18623;SDS011;9441;51.420;7.036;2023-03-01T03:18:47;23.42;;;12.20;;
18623;SDS011;9441;51.420;7.036;2023-03-01T03:19:50;23.63;;;12.48;;
18623;SDS011;9441;51.420;7.036;2023-03-01T03:20:51;22.75;;;12.27;;
18623;SDS011;9441;51.420;7.036;2023-03-01T03:21:54;26.33;;;13.25;;
18623;SDS011;9441;51.420;7.036;2023-03-01T03:22:56;22.45;;;12.40;;
18623;SDS011;9441;51.420;7.036;2023-03-01T03:23:59;22.50;;;12.63;;
18623;SDS011;9441;51.420;7.036;2023-03-01T03:25:00;23.67;;;12.68;;
18623;SDS011;9441;51.420;7.036;2023-03-01T03:26:03;21.80;;;12.45;;
18623;SDS011;9441;51.420;7.036;2023-03-01T03:27:04;21.33;;;12.23;;
18623;SDS011;9441;51.420;7.036;2023-03-01T03:28:07;20.40;;;12.13;;
18623;SDS011;9441;51.420;7.036;2023-03-01T03:29:09;25.15;;;11.98;;
18623;SDS011;9441;51.420;7.036;2023-03-01T03:30:14;21.75;;;12.45;;
18623;SDS011;9441;51.420;7.036;2023-03-01T03:31:16;26.92;;;11.82;;
18623;SDS011;9441;51.420;7.036;2023-03-01T03:32:18;20.60;;;11.95;;
18623;SDS011;9441;51.420;7.036;2023-03-01T03:33:20;24.35;;;12.50;;
18623;SDS011;9441;51.420;7.036;2023-03-01T03:34:22;26.48;;;12.85;;
18623;SDS011;9441;51.420;7.036;2023-03-01T03:35:24;22.45;;;12.63;;
18623;SDS011;9441;51.420;7.036;2023-03-01T03:36:28;20.42;;;12.27;;
18623;SDS011;9441;51.420;7.036;2023-03-01T03:37:29;25.80;;;12.40;;
18623;SDS011;9441;51.420;7.036;2023-03-01T03:38:49;22.20;;;12.07;;
18623;SDS011;9441;51.420;7.036;2023-03-01T03:39:52;23.23;;;12.05;;
18623;SDS011;9441;51.420;7.036;2023-03-01T03:40:59;21.33;;;12.15;;
18623;SDS011;9441;51.420;7.036;2023-03-01T03:42:02;20.10;;;12.05;;
18623;SDS011;9441;51.420;7.036;2023-03-01T03:43:04;23.50;;;12.20;;
18623;SDS011;9441;51.420;7.036;2023-03-01T03:44:07;20.63;;;12.32;;
18623;SDS011;9441;51.420;7.036;2023-03-01T03:45:10;25.75;;;12.70;;
18623;SDS011;9441;51.420;7.036;2023-03-01T03:46:12;25.70;;;13.18;;
18623;SDS011;9441;51.420;7.036;2023-03-01T03:47:15;24.35;;;13.20;;
18623;SDS011;9441;51.420;7.036;2023-03-01T03:48:16;21.60;;;12.23;;
18623;SDS011;9441;51.420;7.036;2023-03-01T03:49:19;24.67;;;12.50;;
18623;SDS011;9441;51.420;7.036;2023-03-01T03:50:20;21.98;;;12.38;;
18623;SDS011;9441;51.420;7.036;2023-03-01T03:51:22;23.55;;;12.75;;
18623;SDS011;9441;51.420;7.036;2023-03-01T03:52:25;22.90;;;12.82;;
18623;SDS011;9441;51.420;7.036;2023-03-01T03:53:26;22.67;;;12.10;;
18623;SDS011;9441;51.420;7.036;2023-03-01T03:54:29;22.83;;;12.25;;
18623;SDS011;9441;51.420;7.036;2023-03-01T03:55:31;22.60;;;12.85;;
18623;SDS011;9441;51.420;7.036;2023-03-01T03:56:34;23.90;;;12.75;;
18623;SDS011;9441;51.420;7.036;2023-03-01T03:57:36;21.52;;;12.27;;
18623;SDS011;9441;51.420;7.036;2023-03-01T03:58:37;25.27;;;12.85;;
18623;SDS011;9441;51.420;7.036;2023-03-01T03:59:40;23.67;;;13.20;;
18623;SDS011;9441;51.420;7.036;2023-03-01T04:00:42;24.95;;;13.63;;
18623;SDS011;9441;51.420;7.036;2023-03-01T04:01:46;26.42;;;13.60;;
18623;SDS011;9441;51.420;7.036;2023-03-01T04:02:49;26.05;;;13.65;;
18623;SDS011;9441;51.420;7.036;2023-03-01T04:03:50;23.83;;;12.95;;
18623;SDS011;9441;51.420;7.036;2023-03-01T04:04:54;22.67;;;12.20;;
18623;SDS011;9441;51.420;7.036;2023-03-01T04:05:56;24.15;;;12.88;;
18623;SDS011;9441;51.420;7.036;2023-03-01T04:06:59;22.45;;;12.07;;
18623;SDS011;9441;51.420;7.036;2023-03-01T04:08:00;24.95;;;12.35;;
18623;SDS011;9441;51.420;7.036;2023-03-01T04:09:03;20.60;;;11.57;;
18623;SDS011;9441;51.420;7.036;2023-03-01T04:10:04;21.95;;;12.75;;
18623;SDS011;9441;51.420;7.036;2023-03-01T04:11:08;23.90;;;13.07;;
18623;SDS011;9441;51.420;7.036;2023-03-01T04:12:27;27.13;;;12.57;;
18623;SDS011;9441;51.420;7.036;2023-03-01T04:13:30;27.83;;;13.07;;
18623;SDS011;9441;51.420;7.036;2023-03-01T04:14:33;24.92;;;12.52;;
18623;SDS011;9441;51.420;7.036;2023-03-01T04:15:34;27.17;;;13.02;;
18623;SDS011;9441;51.420;7.036;2023-03-01T04:16:37;24.13;;;12.60;;
18623;SDS011;9441;51.420;7.036;2023-03-01T04:17:40;25.42;;;12.35;;
18623;SDS011;9441;51.420;7.036;2023-03-01T04:18:42;27.17;;;13.48;;
18623;SDS011;9441;51.420;7.036;2023-03-01T04:19:44;24.45;;;12.63;;
18623;SDS011;9441;51.420;7.036;2023-03-01T04:20:49;28.23;;;12.60;;
18623;SDS011;9441;51.420;7.036;2023-03-01T04:21:52;25.45;;;12.93;;
18623;SDS011;9441;51.420;7.036;2023-03-01T04:22:56;23.67;;;12.93;;
18623;SDS011;9441;51.420;7.036;2023-03-01T04:23:59;21.63;;;12.43;;
18623;SDS011;9441;51.420;7.036;2023-03-01T04:25:04;22.67;;;12.80;;
18623;SDS011;9441;51.420;7.036;2023-03-01T04:26:06;23.60;;;12.70;;
18623;SDS011;9441;51.420;7.036;2023-03-01T04:27:09;23.20;;;12.88;;
18623;SDS011;9441;51.420;7.036;2023-03-01T04:28:10;24.60;;;13.18;;
18623;SDS011;9441;51.420;7.036;2023-03-01T04:29:13;23.50;;;12.57;;
18623;SDS011;9441;51.420;7.036;2023-03-01T04:30:14;24.48;;;12.38;;
18623;SDS011;9441;51.420;7.036;2023-03-01T04:31:17;24.75;;;13.02;;
18623;SDS011;9441;51.420;7.036;2023-03-01T04:32:21;23.27;;;12.77;;
18623;SDS011;9441;51.420;7.036;2023-03-01T04:33:24;20.63;;;12.30;;
18623;SDS011;9441;51.420;7.036;2023-03-01T04:34:27;22.30;;;12.00;;
18623;SDS011;9441;51.420;7.036;2023-03-01T04:35:28;27.90;;;13.00;;
18623;SDS011;9441;51.420;7.036;2023-03-01T04:36:31;26.48;;;14.02;;
18623;SDS011;9441;51.420;7.036;2023-03-01T04:37:35;24.00;;;12.93;;
18623;SDS011;9441;51.420;7.036;2023-03-01T04:38:37;25.45;;;12.95;;
18623;SDS011;9441;51.420;7.036;2023-03-01T04:39:39;26.23;;;13.13;;
18623;SDS011;9441;51.420;7.036;2023-03-01T04:40:45;24.92;;;12.75;;
18623;SDS011;9441;51.420;7.036;2023-03-01T04:41:48;22.95;;;12.35;;
18623;SDS011;9441;51.420;7.036;2023-03-01T04:42:49;23.25;;;13.15;;
18623;SDS011;9441;51.420;7.036;2023-03-01T04:43:51;23.08;;;12.65;;
18623;SDS011;9441;51.420;7.036;2023-03-01T04:44:54;24.75;;;12.90;;
18623;SDS011;9441;51.420;7.036;2023-03-01T04:45:59;26.67;;;13.27;;
18623;SDS011;9441;51.420;7.036;2023-03-01T04:47:02;21.17;;;12.45;;
18623;SDS011;9441;51.420;7.036;2023-03-01T04:48:04;21.88;;;13.07;;
18623;SDS011;9441;51.420;7.036;2023-03-01T04:49:08;24.40;;;12.68;;
18623;SDS011;9441;51.420;7.036;2023-03-01T04:50:10;24.42;;;12.93;;
18623;SDS011;9441;51.420;7.036;2023-03-01T04:51:13;23.60;;;12.98;;
18623;SDS011;9441;51.420;7.036;2023-03-01T04:52:15;26.90;;;13.00;;
18623;SDS011;9441;51.420;7.036;2023-03-01T04:53:18;22.65;;;12.65;;
18623;SDS011;9441;51.420;7.036;2023-03-01T04:54:19;24.05;;;12.65;;
18623;SDS011;9441;51.420;7.036;2023-03-01T04:55:21;22.08;;;12.63;;
18623;SDS011;9441;51.420;7.036;2023-03-01T04:56:26;22.63;;;12.50;;
18623;SDS011;9441;51.420;7.036;2023-03-01T04:57:28;22.25;;;12.52;;
18623;SDS011;9441;51.420;7.036;2023-03-01T04:58:29;25.55;;;13.35;;
18623;SDS011;9441;51.420;7.036;2023-03-01T04:59:32;26.08;;;13.15;;
18623;SDS011;9441;51.420;7.036;2023-03-01T05:00:33;25.60;;;12.90;;
18623;SDS011;9441;51.420;7.036;2023-03-01T05:01:36;19.58;;;11.70;;
18623;SDS011;9441;51.420;7.036;2023-03-01T05:02:38;25.50;;;12.63;;
18623;SDS011;9441;51.420;7.036;2023-03-01T05:03:40;22.65;;;12.55;;
18623;SDS011;9441;51.420;7.036;2023-03-01T05:04:44;21.83;;;11.88;;
18623;SDS011;9441;51.420;7.036;2023-03-01T05:05:47;23.88;;;13.32;;
18623;SDS011;9441;51.420;7.036;2023-03-01T05:06:48;26.02;;;13.70;;
18623;SDS011;9441;51.420;7.036;2023-03-01T05:07:51;26.98;;;13.48;;
18623;SDS011;9441;51.420;7.036;2023-03-01T05:08:53;25.27;;;13.07;;
18623;SDS011;9441;51.420;7.036;2023-03-01T05:09:55;26.48;;;14.13;;
18623;SDS011;9441;51.420;7.036;2023-03-01T05:10:56;22.83;;;13.18;;
18623;SDS011;9441;51.420;7.036;2023-03-01T05:11:59;22.08;;;12.10;;
18623;SDS011;9441;51.420;7.036;2023-03-01T05:13:00;24.33;;;13.57;;
18623;SDS011;9441;51.420;7.036;2023-03-01T05:14:03;22.20;;;13.20;;
18623;SDS011;9441;51.420;7.036;2023-03-01T05:15:06;24.27;;;13.10;;
18623;SDS011;9441;51.420;7.036;2023-03-01T05:16:08;24.77;;;12.32;;
18623;SDS011;9441;51.420;7.036;2023-03-01T05:17:11;23.80;;;13.40;;
18623;SDS011;9441;51.420;7.036;2023-03-01T05:18:12;23.88;;;12.45;;
18623;SDS011;9441;51.420;7.036;2023-03-01T05:19:14;24.10;;;12.95;;
18623;SDS011;9441;51.420;7.036;2023-03-01T05:20:17;23.02;;;12.88;;
18623;SDS011;9441;51.420;7.036;2023-03-01T05:21:23;27.67;;;13.00;;
18623;SDS011;9441;51.420;7.036;2023-03-01T05:22:24;24.15;;;12.75;;
18623;SDS011;9441;51.420;7.036;2023-03-01T05:23:26;26.70;;;13.13;;
18623;SDS011;9441;51.420;7.036;2023-03-01T05:24:29;22.63;;;12.07;;
18623;SDS011;9441;51.420;7.036;2023-03-01T05:25:31;25.83;;;13.00;;
18623;SDS011;9441;51.420;7.036;2023-03-01T05:26:33;22.63;;;12.98;;
18623;SDS011;9441;51.420;7.036;2023-03-01T05:27:35;28.85;;;13.13;;
18623;SDS011;9441;51.420;7.036;2023-03-01T05:28:37;27.00;;;13.02;;
18623;SDS011;9441;51.420;7.036;2023-03-01T05:29:39;25.55;;;13.60;;
18623;SDS011;9441;51.420;7.036;2023-03-01T05:30:42;22.15;;;12.70;;
18623;SDS011;9441;51.420;7.036;2023-03-01T05:31:43;25.73;;;13.30;;
18623;SDS011;9441;51.420;7.036;2023-03-01T05:32:46;22.85;;;13.02;;
18623;SDS011;9441;51.420;7.036;2023-03-01T05:33:48;20.67;;;12.45;;
18623;SDS011;9441;51.420;7.036;2023-03-01T05:34:50;23.75;;;12.57;;
18623;SDS011;9441;51.420;7.036;2023-03-01T05:35:53;24.13;;;12.32;;
18623;SDS011;9441;51.420;7.036;2023-03-01T05:36:56;23.52;;;11.90;;
18623;SDS011;9441;51.420;7.036;2023-03-01T05:37:57;24.40;;;12.68;;
18623;SDS011;9441;51.420;7.036;2023-03-01T05:38:59;25.50;;;13.00;;
18623;SDS011;9441;51.420;7.036;2023-03-01T05:40:01;21.75;;;12.90;;
18623;SDS011;9441;51.420;7.036;2023-03-01T05:41:05;21.20;;;12.45;;
18623;SDS011;9441;51.420;7.036;2023-03-01T05:42:15;26.38;;;12.85;;
18623;SDS011;9441;51.420;7.036;2023-03-01T05:43:17;24.73;;;13.13;;
18623;SDS011;9441;51.420;7.036;2023-03-01T05:44:20;24.70;;;13.02;;
18623;SDS011;9441;51.420;7.036;2023-03-01T05:45:22;25.80;;;12.93;;
18623;SDS011;9441;51.420;7.036;2023-03-01T05:46:24;24.40;;;13.27;;
18623;SDS011;9441;51.420;7.036;2023-03-01T05:47:26;26.55;;;12.85;;
18623;SDS011;9441;51.420;7.036;2023-03-01T05:48:28;22.67;;;13.07;;
18623;SDS011;9441;51.420;7.036;2023-03-01T05:49:30;22.88;;;13.40;;
18623;SDS011;9441;51.420;7.036;2023-03-01T05:50:34;23.35;;;13.15;;
18623;SDS011;9441;51.420;7.036;2023-03-01T05:51:37;22.30;;;12.90;;
18623;SDS011;9441;51.420;7.036;2023-03-01T05:52:39;26.52;;;13.07;;
18623;SDS011;9441;51.420;7.036;2023-03-01T05:53:40;26.25;;;13.13;;
18623;SDS011;9441;51.420;7.036;2023-03-01T05:54:43;22.10;;;12.20;;
18623;SDS011;9441;51.420;7.036;2023-03-01T05:55:44;24.13;;;13.27;;
18623;SDS011;9441;51.420;7.036;2023-03-01T05:56:47;21.13;;;12.25;;
18623;SDS011;9441;51.420;7.036;2023-03-01T05:57:49;23.05;;;12.48;;
18623;SDS011;9441;51.420;7.036;2023-03-01T05:58:51;23.50;;;12.68;;
18623;SDS011;9441;51.420;7.036;2023-03-01T05:59:52;26.98;;;13.55;;
18623;SDS011;9441;51.420;7.036;2023-03-01T06:00:55;24.85;;;12.65;;
18623;SDS011;9441;51.420;7.036;2023-03-01T06:01:58;24.75;;;13.32;;
18623;SDS011;9441;51.420;7.036;2023-03-01T06:02:59;24.75;;;13.32;;
18623;SDS011;9441;51.420;7.036;2023-03-01T06:04:02;24.25;;;12.38;;
18623;SDS011;9441;51.420;7.036;2023-03-01T06:05:03;26.13;;;13.52;;
18623;SDS011;9441;51.420;7.036;2023-03-01T06:06:06;27.33;;;13.00;;
18623;SDS011;9441;51.420;7.036;2023-03-01T06:07:09;27.92;;;13.27;;
18623;SDS011;9441;51.420;7.036;2023-03-01T06:08:11;25.58;;;13.18;;
18623;SDS011;9441;51.420;7.036;2023-03-01T06:09:14;23.90;;;13.23;;
18623;SDS011;9441;51.420;7.036;2023-03-01T06:10:16;24.35;;;13.23;;
18623;SDS011;9441;51.420;7.036;2023-03-01T06:11:19;23.40;;;12.90;;
18623;SDS011;9441;51.420;7.036;2023-03-01T06:12:21;24.70;;;13.25;;
18623;SDS011;9441;51.420;7.036;2023-03-01T06:13:23;27.75;;;13.18;;
18623;SDS011;9441;51.420;7.036;2023-03-01T06:14:25;27.42;;;13.77;;